sensor_id;sensor_type;location;lat;lon;timestamp;P1;durP1;ratioP1;P2;durP2;ratioP2
15816;SDS011;8009;50.070;8.232;2023-06-19T00:00:32;16.15;;;15.55;;
15816;SDS011;8009;50.070;8.232;2023-06-19T00:03:01;15.00;;;14.40;;
15816;SDS011;8009;50.070;8.232;2023-06-19T00:05:35;15.50;;;14.90;;
15816;SDS011;8009;50.070;8.232;2023-06-19T00:08:05;15.05;;;14.45;;
15816;SDS011;8009;50.070;8.232;2023-06-19T00:10:34;15.88;;;15.27;;
15816;SDS011;8009;50.070;8.232;2023-06-19T00:13:02;15.88;;;15.25;;
15816;SDS011;8009;50.070;8.232;2023-06-19T00:15:31;15.73;;;15.13;;
15816;SDS011;8009;50.070;8.232;2023-06-19T00:17:59;15.60;;;15.00;;
15816;SDS011;8009;50.070;8.232;2023-06-19T00:20:28;15.95;;;15.35;;
15816;SDS011;8009;50.070;8.232;2023-06-19T00:22:59;15.40;;;14.80;;
15816;SDS011;8009;50.070;8.232;2023-06-19T00:25:28;15.93;;;15.32;;
15816;SDS011;8009;50.070;8.232;2023-06-19T00:27:56;15.27;;;14.68;;
15816;SDS011;8009;50.070;8.232;2023-06-19T00:30:26;15.82;;;15.23;;
15816;SDS011;8009;50.070;8.232;2023-06-19T00:32:59;15.90;;;15.30;;
15816;SDS011;8009;50.070;8.232;2023-06-19T00:35:30;15.63;;;15.02;;
15816;SDS011;8009;50.070;8.232;2023-06-19T00:38:01;15.65;;;15.05;;
15816;SDS011;8009;50.070;8.232;2023-06-19T00:40:31;14.75;;;14.23;;
15816;SDS011;8009;50.070;8.232;2023-06-19T00:43:00;14.07;;;13.57;;
15816;SDS011;8009;50.070;8.232;2023-06-19T00:45:31;14.68;;;14.15;;
15816;SDS011;8009;50.070;8.232;2023-06-19T00:47:59;14.15;;;13.65;;
15816;SDS011;8009;50.070;8.232;2023-06-19T00:50:28;15.05;;;14.45;;
15816;SDS011;8009;50.070;8.232;2023-06-19T00:52:58;13.98;;;13.48;;
15816;SDS011;8009;50.070;8.232;2023-06-19T00:55:31;14.10;;;13.60;;
15816;SDS011;8009;50.070;8.232;2023-06-19T00:58:01;13.48;;;12.98;;
15816;SDS011;8009;50.070;8.232;2023-06-19T01:00:30;14.68;;;14.18;;
15816;SDS011;8009;50.070;8.232;2023-06-19T01:02:59;15.52;;;14.93;;
15816;SDS011;8009;50.070;8.232;2023-06-19T01:05:27;15.40;;;14.80;;
15816;SDS011;8009;50.070;8.232;2023-06-19T01:07:58;14.43;;;13.93;;
15816;SDS011;8009;50.070;8.232;2023-06-19T01:10:32;14.82;;;14.23;;
15816;SDS011;8009;50.070;8.232;2023-06-19T01:13:06;14.27;;;13.77;;
15816;SDS011;8009;50.070;8.232;2023-06-19T01:15:37;14.63;;;14.13;;
15816;SDS011;8009;50.070;8.232;2023-06-19T01:18:08;14.50;;;14.00;;
15816;SDS011;8009;50.070;8.232;2023-06-19T01:20:38;15.30;;;14.70;;
15816;SDS011;8009;50.070;8.232;2023-06-19T01:23:10;14.70;;;14.20;;
15816;SDS011;8009;50.070;8.232;2023-06-19T01:25:39;15.80;;;15.20;;
15816;SDS011;8009;50.070;8.232;2023-06-19T01:28:09;15.10;;;14.50;;
15816;SDS011;8009;50.070;8.232;2023-06-19T01:30:39;19.35;;;18.65;;
15816;SDS011;8009;50.070;8.232;2023-06-19T01:33:12;18.13;;;17.42;;
15816;SDS011;8009;50.070;8.232;2023-06-19T01:35:48;17.15;;;16.55;;
15816;SDS011;8009;50.070;8.232;2023-06-19T01:38:21;17.80;;;17.10;;
15816;SDS011;8009;50.070;8.232;2023-06-19T01:40:51;17.52;;;16.85;;
15816;SDS011;8009;50.070;8.232;2023-06-19T01:43:22;16.83;;;16.23;;
15816;SDS011;8009;50.070;8.232;2023-06-19T01:45:51;17.40;;;16.75;;
15816;SDS011;8009;50.070;8.232;2023-06-19T01:48:20;16.77;;;16.17;;
15816;SDS011;8009;50.070;8.232;2023-06-19T01:50:48;16.20;;;15.60;;
15816;SDS011;8009;50.070;8.232;2023-06-19T01:53:18;15.98;;;15.38;;
15816;SDS011;8009;50.070;8.232;2023-06-19T01:55:48;16.42;;;15.82;;
15816;SDS011;8009;50.070;8.232;2023-06-19T01:58:17;15.88;;;15.27;;
15816;SDS011;8009;50.070;8.232;2023-06-19T02:00:45;15.30;;;14.70;;
15816;SDS011;8009;50.070;8.232;2023-06-19T02:03:14;14.32;;;13.82;;
15816;SDS011;8009;50.070;8.232;2023-06-19T02:05:44;13.80;;;13.30;;
15816;SDS011;8009;50.070;8.232;2023-06-19T02:08:12;13.80;;;13.30;;
15816;SDS011;8009;50.070;8.232;2023-06-19T02:10:43;15.02;;;14.43;;
15816;SDS011;8009;50.070;8.232;2023-06-19T02:13:12;14.20;;;13.70;;
15816;SDS011;8009;50.070;8.232;2023-06-19T02:15:40;15.20;;;14.60;;
15816;SDS011;8009;50.070;8.232;2023-06-19T02:18:08;16.38;;;15.77;;
15816;SDS011;8009;50.070;8.232;2023-06-19T02:20:37;17.17;;;16.58;;
15816;SDS011;8009;50.070;8.232;2023-06-19T02:23:05;17.48;;;16.80;;
15816;SDS011;8009;50.070;8.232;2023-06-19T02:28:47;17.17;;;16.55;;
15816;SDS011;8009;50.070;8.232;2023-06-19T02:31:19;16.85;;;16.25;;
15816;SDS011;8009;50.070;8.232;2023-06-19T02:33:48;17.90;;;17.20;;
15816;SDS011;8009;50.070;8.232;2023-06-19T02:36:16;17.90;;;17.20;;
15816;SDS011;8009;50.070;8.232;2023-06-19T02:38:45;19.15;;;18.45;;
15816;SDS011;8009;50.070;8.232;2023-06-19T02:41:14;18.02;;;17.33;;
15816;SDS011;8009;50.070;8.232;2023-06-19T02:43:43;17.73;;;17.02;;
15816;SDS011;8009;50.070;8.232;2023-06-19T02:46:15;17.15;;;16.55;;
15816;SDS011;8009;50.070;8.232;2023-06-19T02:48:43;18.95;;;18.25;;
15816;SDS011;8009;50.070;8.232;2023-06-19T02:51:11;17.90;;;17.20;;
15816;SDS011;8009;50.070;8.232;2023-06-19T02:53:40;18.05;;;17.35;;
15816;SDS011;8009;50.070;8.232;2023-06-19T02:56:09;18.40;;;17.60;;
15816;SDS011;8009;50.070;8.232;2023-06-19T02:58:37;18.90;;;18.20;;
15816;SDS011;8009;50.070;8.232;2023-06-19T03:01:09;17.55;;;16.85;;
15816;SDS011;8009;50.070;8.232;2023-06-19T03:03:37;17.25;;;16.65;;
15816;SDS011;8009;50.070;8.232;2023-06-19T03:06:06;17.60;;;16.90;;
15816;SDS011;8009;50.070;8.232;2023-06-19T03:08:37;18.92;;;18.23;;
15816;SDS011;8009;50.070;8.232;2023-06-19T03:11:07;19.33;;;18.63;;
15816;SDS011;8009;50.070;8.232;2023-06-19T03:13:43;19.95;;;19.17;;
15816;SDS011;8009;50.070;8.232;2023-06-19T03:16:16;20.65;;;19.85;;
15816;SDS011;8009;50.070;8.232;2023-06-19T03:18:46;20.90;;;20.10;;
15816;SDS011;8009;50.070;8.232;2023-06-19T03:21:15;24.17;;;23.23;;
15816;SDS011;8009;50.070;8.232;2023-06-19T03:23:44;24.80;;;23.85;;
15816;SDS011;8009;50.070;8.232;2023-06-19T03:26:13;23.15;;;22.25;;
15816;SDS011;8009;50.070;8.232;2023-06-19T03:28:41;22.92;;;21.95;;
15816;SDS011;8009;50.070;8.232;2023-06-19T03:31:09;23.15;;;22.25;;
15816;SDS011;8009;50.070;8.232;2023-06-19T03:33:40;22.65;;;21.75;;
15816;SDS011;8009;50.070;8.232;2023-06-19T03:36:09;21.58;;;20.77;;
15816;SDS011;8009;50.070;8.232;2023-06-19T03:38:37;21.15;;;20.35;;
15816;SDS011;8009;50.070;8.232;2023-06-19T03:41:05;19.73;;;18.92;;
15816;SDS011;8009;50.070;8.232;2023-06-19T03:43:33;18.90;;;18.20;;
15816;SDS011;8009;50.070;8.232;2023-06-19T03:46:02;15.60;;;15.00;;
15816;SDS011;8009;50.070;8.232;2023-06-19T03:48:30;15.40;;;14.80;;
15816;SDS011;8009;50.070;8.232;2023-06-19T03:51:01;31.02;;;29.83;;
15816;SDS011;8009;50.070;8.232;2023-06-19T03:53:29;15.02;;;14.43;;
15816;SDS011;8009;50.070;8.232;2023-06-19T03:55:58;14.65;;;14.07;;
15816;SDS011;8009;50.070;8.232;2023-06-19T03:58:27;15.70;;;15.10;;
15816;SDS011;8009;50.070;8.232;2023-06-19T04:01:08;18.08;;;17.38;;
15816;SDS011;8009;50.070;8.232;2023-06-19T04:03:38;18.90;;;18.20;;
15816;SDS011;8009;50.070;8.232;2023-06-19T04:06:09;18.15;;;17.45;;
15816;SDS011;8009;50.070;8.232;2023-06-19T04:08:37;16.23;;;15.63;;
15816;SDS011;8009;50.070;8.232;2023-06-19T04:11:05;14.57;;;14.05;;
15816;SDS011;8009;50.070;8.232;2023-06-19T04:13:34;15.23;;;14.63;;
15816;SDS011;8009;50.070;8.232;2023-06-19T04:16:02;15.32;;;14.73;;
15816;SDS011;8009;50.070;8.232;2023-06-19T04:18:31;16.73;;;16.13;;
15816;SDS011;8009;50.070;8.232;2023-06-19T04:21:00;18.70;;;18.00;;
15816;SDS011;8009;50.070;8.232;2023-06-19T04:23:31;22.02;;;21.20;;
15816;SDS011;8009;50.070;8.232;2023-06-19T04:25:59;22.83;;;21.92;;
15816;SDS011;8009;50.070;8.232;2023-06-19T04:28:27;24.30;;;23.40;;
15816;SDS011;8009;50.070;8.232;2023-06-19T04:30:56;21.35;;;20.55;;
15816;SDS011;8009;50.070;8.232;2023-06-19T04:33:27;20.08;;;19.27;;
15816;SDS011;8009;50.070;8.232;2023-06-19T04:35:57;16.40;;;15.80;;
15816;SDS011;8009;50.070;8.232;2023-06-19T04:38:25;15.48;;;14.88;;
15816;SDS011;8009;50.070;8.232;2023-06-19T04:40:56;15.43;;;14.82;;
15816;SDS011;8009;50.070;8.232;2023-06-19T04:43:25;14.35;;;13.85;;
15816;SDS011;8009;50.070;8.232;2023-06-19T04:45:53;14.00;;;13.40;;
15816;SDS011;8009;50.070;8.232;2023-06-19T04:48:22;15.65;;;15.05;;
15816;SDS011;8009;50.070;8.232;2023-06-19T04:50:51;15.70;;;15.10;;
15816;SDS011;8009;50.070;8.232;2023-06-19T04:53:21;17.08;;;16.48;;
15816;SDS011;8009;50.070;8.232;2023-06-19T04:55:49;16.58;;;15.98;;
15816;SDS011;8009;50.070;8.232;2023-06-19T04:58:22;18.50;;;17.80;;
15816;SDS011;8009;50.070;8.232;2023-06-19T05:00:50;20.35;;;19.55;;
15816;SDS011;8009;50.070;8.232;2023-06-19T05:03:19;20.52;;;19.73;;
15816;SDS011;8009;50.070;8.232;2023-06-19T05:05:48;20.23;;;19.42;;
15816;SDS011;8009;50.070;8.232;2023-06-19T05:08:16;21.55;;;20.75;;
15816;SDS011;8009;50.070;8.232;2023-06-19T05:10:44;21.20;;;20.40;;
15816;SDS011;8009;50.070;8.232;2023-06-19T05:13:13;21.90;;;21.08;;
15816;SDS011;8009;50.070;8.232;2023-06-19T05:15:47;23.42;;;22.52;;
15816;SDS011;8009;50.070;8.232;2023-06-19T05:18:15;23.73;;;22.83;;
15816;SDS011;8009;50.070;8.232;2023-06-19T05:20:44;24.55;;;23.65;;
15816;SDS011;8009;50.070;8.232;2023-06-19T05:23:15;23.70;;;22.80;;
15816;SDS011;8009;50.070;8.232;2023-06-19T05:25:43;23.48;;;22.58;;
15816;SDS011;8009;50.070;8.232;2023-06-19T05:28:11;23.05;;;22.15;;
15816;SDS011;8009;50.070;8.232;2023-06-19T05:30:40;21.92;;;21.10;;
15816;SDS011;8009;50.070;8.232;2023-06-19T05:33:12;21.60;;;20.80;;
15816;SDS011;8009;50.070;8.232;2023-06-19T05:35:41;23.13;;;22.23;;
15816;SDS011;8009;50.070;8.232;2023-06-19T05:38:16;20.88;;;20.08;;
15816;SDS011;8009;50.070;8.232;2023-06-19T05:40:46;21.98;;;21.17;;
15816;SDS011;8009;50.070;8.232;2023-06-19T05:43:14;19.17;;;18.48;;
15816;SDS011;8009;50.070;8.232;2023-06-19T05:45:43;19.83;;;19.02;;
15816;SDS011;8009;50.070;8.232;2023-06-19T05:48:14;18.52;;;17.83;;
15816;SDS011;8009;50.070;8.232;2023-06-19T05:50:43;18.10;;;17.40;;
15816;SDS011;8009;50.070;8.232;2023-06-19T05:53:11;14.30;;;13.80;;
15816;SDS011;8009;50.070;8.232;2023-06-19T05:55:42;14.43;;;13.93;;
15816;SDS011;8009;50.070;8.232;2023-06-19T05:58:33;14.50;;;14.00;;
15816;SDS011;8009;50.070;8.232;2023-06-19T06:01:01;14.30;;;13.80;;
15816;SDS011;8009;50.070;8.232;2023-06-19T06:03:32;15.30;;;14.55;;
15816;SDS011;8009;50.070;8.232;2023-06-19T06:06:01;22.23;;;21.23;;
15816;SDS011;8009;50.070;8.232;2023-06-19T06:08:30;13.85;;;13.35;;
15816;SDS011;8009;50.070;8.232;2023-06-19T06:17:20;14.23;;;13.73;;
15816;SDS011;8009;50.070;8.232;2023-06-19T06:19:51;14.40;;;13.90;;
15816;SDS011;8009;50.070;8.232;2023-06-19T06:22:19;13.50;;;13.00;;
15816;SDS011;8009;50.070;8.232;2023-06-19T06:24:47;14.23;;;13.73;;
15816;SDS011;8009;50.070;8.232;2023-06-19T06:27:17;13.88;;;13.38;;
15816;SDS011;8009;50.070;8.232;2023-06-19T06:29:47;14.68;;;14.07;;
15816;SDS011;8009;50.070;8.232;2023-06-19T06:32:15;13.90;;;13.40;;
15816;SDS011;8009;50.070;8.232;2023-06-19T06:34:44;14.27;;;13.77;;
15816;SDS011;8009;50.070;8.232;2023-06-19T06:37:15;14.13;;;13.55;;
15816;SDS011;8009;50.070;8.232;2023-06-19T06:39:47;14.00;;;13.50;;
15816;SDS011;8009;50.070;8.232;2023-06-19T06:42:16;14.70;;;14.20;;
15816;SDS011;8009;50.070;8.232;2023-06-19T06:44:44;14.40;;;13.90;;
15816;SDS011;8009;50.070;8.232;2023-06-19T06:47:13;14.35;;;13.80;;
15816;SDS011;8009;50.070;8.232;2023-06-19T06:49:41;14.63;;;14.13;;
15816;SDS011;8009;50.070;8.232;2023-06-19T06:52:10;14.75;;;14.15;;
15816;SDS011;8009;50.070;8.232;2023-06-19T06:54:41;14.98;;;14.38;;
15816;SDS011;8009;50.070;8.232;2023-06-19T06:57:10;14.65;;;14.05;;
15816;SDS011;8009;50.070;8.232;2023-06-19T06:59:38;14.60;;;14.00;;
15816;SDS011;8009;50.070;8.232;2023-06-19T07:02:06;13.63;;;13.13;;
15816;SDS011;8009;50.070;8.232;2023-06-19T07:04:35;14.90;;;14.30;;
15816;SDS011;8009;50.070;8.232;2023-06-19T07:07:06;14.02;;;13.52;;
15816;SDS011;8009;50.070;8.232;2023-06-19T07:09:34;14.55;;;14.02;;
15816;SDS011;8009;50.070;8.232;2023-06-19T07:12:06;13.70;;;13.20;;
15816;SDS011;8009;50.070;8.232;2023-06-19T07:14:35;15.00;;;14.40;;
15816;SDS011;8009;50.070;8.232;2023-06-19T07:17:05;14.25;;;13.75;;
15816;SDS011;8009;50.070;8.232;2023-06-19T07:19:33;15.93;;;15.00;;
15816;SDS011;8009;50.070;8.232;2023-06-19T07:22:02;14.40;;;13.90;;
15816;SDS011;8009;50.070;8.232;2023-06-19T07:24:31;15.02;;;14.43;;
15816;SDS011;8009;50.070;8.232;2023-06-19T07:26:59;14.30;;;13.80;;
15816;SDS011;8009;50.070;8.232;2023-06-19T07:29:30;14.38;;;13.88;;
15816;SDS011;8009;50.070;8.232;2023-06-19T07:31:59;14.60;;;14.00;;
15816;SDS011;8009;50.070;8.232;2023-06-19T07:34:31;14.65;;;14.15;;
15816;SDS011;8009;50.070;8.232;2023-06-19T07:37:00;14.68;;;14.18;;
15816;SDS011;8009;50.070;8.232;2023-06-19T07:39:28;14.32;;;13.82;;
15816;SDS011;8009;50.070;8.232;2023-06-19T07:41:56;14.02;;;13.52;;
15816;SDS011;8009;50.070;8.232;2023-06-19T07:44:24;14.65;;;14.07;;
15816;SDS011;8009;50.070;8.232;2023-06-19T07:46:55;14.25;;;13.75;;
15816;SDS011;8009;50.070;8.232;2023-06-19T07:49:24;14.40;;;13.90;;
15816;SDS011;8009;50.070;8.232;2023-06-19T07:51:52;14.30;;;13.80;;
15816;SDS011;8009;50.070;8.232;2023-06-19T07:54:21;15.02;;;14.45;;
15816;SDS011;8009;50.070;8.232;2023-06-19T07:56:49;14.07;;;13.57;;
15816;SDS011;8009;50.070;8.232;2023-06-19T07:59:17;14.38;;;13.77;;
15816;SDS011;8009;50.070;8.232;2023-06-19T08:01:46;14.30;;;13.80;;
15816;SDS011;8009;50.070;8.232;2023-06-19T08:04:17;14.60;;;14.00;;
15816;SDS011;8009;50.070;8.232;2023-06-19T08:06:46;14.35;;;13.82;;
15816;SDS011;8009;50.070;8.232;2023-06-19T08:09:14;14.60;;;14.10;;
15816;SDS011;8009;50.070;8.232;2023-06-19T08:11:43;15.70;;;15.10;;
15816;SDS011;8009;50.070;8.232;2023-06-19T08:14:11;15.02;;;14.43;;
15816;SDS011;8009;50.070;8.232;2023-06-19T08:16:40;16.02;;;15.43;;
15816;SDS011;8009;50.070;8.232;2023-06-19T08:19:08;15.63;;;15.02;;
15816;SDS011;8009;50.070;8.232;2023-06-19T08:21:39;15.10;;;14.50;;
15816;SDS011;8009;50.070;8.232;2023-06-19T08:24:08;14.35;;;13.85;;
15816;SDS011;8009;50.070;8.232;2023-06-19T08:26:38;15.30;;;14.70;;
15816;SDS011;8009;50.070;8.232;2023-06-19T08:29:09;14.32;;;13.73;;
15816;SDS011;8009;50.070;8.232;2023-06-19T08:31:37;15.00;;;14.40;;
15816;SDS011;8009;50.070;8.232;2023-06-19T08:34:06;15.40;;;14.80;;
15816;SDS011;8009;50.070;8.232;2023-06-19T08:36:35;17.90;;;17.20;;
15816;SDS011;8009;50.070;8.232;2023-06-19T08:39:06;21.20;;;20.40;;
15816;SDS011;8009;50.070;8.232;2023-06-19T08:41:35;22.02;;;21.13;;
15816;SDS011;8009;50.070;8.232;2023-06-19T08:44:07;25.35;;;24.35;;
15816;SDS011;8009;50.070;8.232;2023-06-19T08:46:36;23.38;;;22.48;;
15816;SDS011;8009;50.070;8.232;2023-06-19T08:49:07;23.55;;;22.65;;
15816;SDS011;8009;50.070;8.232;2023-06-19T08:51:36;21.40;;;20.60;;
15816;SDS011;8009;50.070;8.232;2023-06-19T08:54:07;19.75;;;18.98;;
15816;SDS011;8009;50.070;8.232;2023-06-19T08:56:36;19.15;;;18.42;;
15816;SDS011;8009;50.070;8.232;2023-06-19T08:59:07;18.15;;;17.45;;
15816;SDS011;8009;50.070;8.232;2023-06-19T09:01:49;16.95;;;16.35;;
15816;SDS011;8009;50.070;8.232;2023-06-19T09:04:20;19.75;;;18.65;;
15816;SDS011;8009;50.070;8.232;2023-06-19T09:06:49;15.98;;;15.38;;
15816;SDS011;8009;50.070;8.232;2023-06-19T09:09:27;15.93;;;15.32;;
15816;SDS011;8009;50.070;8.232;2023-06-19T09:12:01;16.70;;;16.10;;
15816;SDS011;8009;50.070;8.232;2023-06-19T09:17:25;15.40;;;14.80;;
15816;SDS011;8009;50.070;8.232;2023-06-19T09:19:56;15.15;;;14.55;;
15816;SDS011;8009;50.070;8.232;2023-06-19T09:22:24;14.60;;;14.10;;
15816;SDS011;8009;50.070;8.232;2023-06-19T09:24:59;14.68;;;14.18;;
15816;SDS011;8009;50.070;8.232;2023-06-19T09:27:31;14.35;;;13.85;;
15816;SDS011;8009;50.070;8.232;2023-06-19T09:30:00;14.75;;;14.25;;
15816;SDS011;8009;50.070;8.232;2023-06-19T09:32:30;14.90;;;14.30;;
15816;SDS011;8009;50.070;8.232;2023-06-19T09:34:58;15.05;;;14.45;;
15816;SDS011;8009;50.070;8.232;2023-06-19T09:37:27;14.57;;;14.07;;
15816;SDS011;8009;50.070;8.232;2023-06-19T09:40:01;14.98;;;14.38;;
15816;SDS011;8009;50.070;8.232;2023-06-19T09:42:35;15.27;;;14.68;;
15816;SDS011;8009;50.070;8.232;2023-06-19T09:45:04;15.80;;;15.20;;
15816;SDS011;8009;50.070;8.232;2023-06-19T09:47:36;15.30;;;14.70;;
15816;SDS011;8009;50.070;8.232;2023-06-19T09:50:06;15.15;;;14.55;;
15816;SDS011;8009;50.070;8.232;2023-06-19T09:52:35;14.60;;;14.10;;
15816;SDS011;8009;50.070;8.232;2023-06-19T09:55:07;14.60;;;14.10;;
15816;SDS011;8009;50.070;8.232;2023-06-19T09:57:38;15.10;;;14.50;;
15816;SDS011;8009;50.070;8.232;2023-06-19T10:00:08;14.50;;;14.00;;
15816;SDS011;8009;50.070;8.232;2023-06-19T10:02:40;15.05;;;14.45;;
15816;SDS011;8009;50.070;8.232;2023-06-19T10:05:10;13.95;;;13.45;;
15816;SDS011;8009;50.070;8.232;2023-06-19T10:07:41;14.70;;;14.20;;
15816;SDS011;8009;50.070;8.232;2023-06-19T10:10:24;15.07;;;14.48;;
15816;SDS011;8009;50.070;8.232;2023-06-19T10:12:57;14.88;;;14.27;;
15816;SDS011;8009;50.070;8.232;2023-06-19T10:15:27;15.18;;;14.57;;
15816;SDS011;8009;50.070;8.232;2023-06-19T10:17:59;14.95;;;14.35;;
15816;SDS011;8009;50.070;8.232;2023-06-19T10:20:31;14.95;;;14.35;;
15816;SDS011;8009;50.070;8.232;2023-06-19T10:23:03;14.60;;;14.10;;
15816;SDS011;8009;50.070;8.232;2023-06-19T10:25:39;14.95;;;14.35;;
15816;SDS011;8009;50.070;8.232;2023-06-19T10:28:18;14.57;;;14.07;;
15816;SDS011;8009;50.070;8.232;2023-06-19T10:30:51;14.68;;;13.98;;
15816;SDS011;8009;50.070;8.232;2023-06-19T10:33:26;14.60;;;14.10;;
15816;SDS011;8009;50.070;8.232;2023-06-19T10:35:57;15.43;;;14.82;;
15816;SDS011;8009;50.070;8.232;2023-06-19T10:38:29;15.00;;;14.40;;
15816;SDS011;8009;50.070;8.232;2023-06-19T10:41:05;14.75;;;14.15;;
15816;SDS011;8009;50.070;8.232;2023-06-19T10:43:52;15.30;;;14.70;;
15816;SDS011;8009;50.070;8.232;2023-06-19T10:46:23;15.13;;;14.52;;
15816;SDS011;8009;50.070;8.232;2023-06-19T10:48:54;14.80;;;14.27;;
15816;SDS011;8009;50.070;8.232;2023-06-19T10:51:26;15.70;;;15.10;;
15816;SDS011;8009;50.070;8.232;2023-06-19T10:53:57;15.50;;;14.90;;
15816;SDS011;8009;50.070;8.232;2023-06-19T10:56:29;15.45;;;14.85;;
15816;SDS011;8009;50.070;8.232;2023-06-19T10:58:59;15.02;;;14.43;;
15816;SDS011;8009;50.070;8.232;2023-06-19T11:01:33;15.50;;;14.90;;
15816;SDS011;8009;50.070;8.232;2023-06-19T11:04:03;14.90;;;14.30;;
15816;SDS011;8009;50.070;8.232;2023-06-19T11:06:33;14.70;;;14.20;;
15816;SDS011;8009;50.070;8.232;2023-06-19T11:09:02;14.77;;;14.18;;
15816;SDS011;8009;50.070;8.232;2023-06-19T11:11:40;15.75;;;14.90;;
15816;SDS011;8009;50.070;8.232;2023-06-19T11:14:11;14.43;;;13.93;;
15816;SDS011;8009;50.070;8.232;2023-06-19T11:16:41;15.25;;;14.65;;
15816;SDS011;8009;50.070;8.232;2023-06-19T11:19:14;14.20;;;13.70;;
15816;SDS011;8009;50.070;8.232;2023-06-19T11:21:48;14.07;;;13.57;;
15816;SDS011;8009;50.070;8.232;2023-06-19T11:24:19;14.60;;;14.10;;
15816;SDS011;8009;50.070;8.232;2023-06-19T11:26:51;14.80;;;14.30;;
15816;SDS011;8009;50.070;8.232;2023-06-19T11:29:20;15.13;;;14.52;;
15816;SDS011;8009;50.070;8.232;2023-06-19T11:31:50;14.30;;;13.80;;
15816;SDS011;8009;50.070;8.232;2023-06-19T11:34:30;14.23;;;13.73;;
15816;SDS011;8009;50.070;8.232;2023-06-19T11:37:01;14.63;;;14.13;;
15816;SDS011;8009;50.070;8.232;2023-06-19T11:39:41;15.23;;;14.63;;
15816;SDS011;8009;50.070;8.232;2023-06-19T11:42:13;14.90;;;14.30;;
15816;SDS011;8009;50.070;8.232;2023-06-19T11:44:54;15.05;;;14.45;;
15816;SDS011;8009;50.070;8.232;2023-06-19T11:47:23;16.10;;;15.50;;
15816;SDS011;8009;50.070;8.232;2023-06-19T11:49:52;16.20;;;15.60;;
15816;SDS011;8009;50.070;8.232;2023-06-19T11:52:22;16.55;;;15.95;;
15816;SDS011;8009;50.070;8.232;2023-06-19T11:54:50;16.25;;;15.65;;
15816;SDS011;8009;50.070;8.232;2023-06-19T11:57:21;15.43;;;14.82;;
15816;SDS011;8009;50.070;8.232;2023-06-19T11:59:52;14.20;;;13.60;;
15816;SDS011;8009;50.070;8.232;2023-06-19T12:02:21;14.77;;;14.18;;
15816;SDS011;8009;50.070;8.232;2023-06-19T12:04:52;14.60;;;14.10;;
15816;SDS011;8009;50.070;8.232;2023-06-19T12:07:23;14.63;;;14.13;;
15816;SDS011;8009;50.070;8.232;2023-06-19T12:09:52;14.05;;;13.55;;
15816;SDS011;8009;50.070;8.232;2023-06-19T12:12:23;14.40;;;13.90;;
15816;SDS011;8009;50.070;8.232;2023-06-19T12:14:51;14.55;;;14.05;;
15816;SDS011;8009;50.070;8.232;2023-06-19T12:17:20;17.85;;;17.15;;
15816;SDS011;8009;50.070;8.232;2023-06-19T12:19:56;16.83;;;16.23;;
15816;SDS011;8009;50.070;8.232;2023-06-19T12:22:43;16.00;;;15.40;;
15816;SDS011;8009;50.070;8.232;2023-06-19T12:25:21;17.88;;;17.08;;
15816;SDS011;8009;50.070;8.232;2023-06-19T12:27:55;21.17;;;20.38;;
15816;SDS011;8009;50.070;8.232;2023-06-19T12:30:24;20.92;;;20.13;;
15816;SDS011;8009;50.070;8.232;2023-06-19T12:32:53;20.58;;;19.77;;
15816;SDS011;8009;50.070;8.232;2023-06-19T12:35:21;20.92;;;20.13;;
15816;SDS011;8009;50.070;8.232;2023-06-19T12:37:51;20.42;;;19.63;;
15816;SDS011;8009;50.070;8.232;2023-06-19T12:40:20;20.77;;;19.98;;
15816;SDS011;8009;50.070;8.232;2023-06-19T12:42:59;20.75;;;19.95;;
15816;SDS011;8009;50.070;8.232;2023-06-19T12:48:54;18.60;;;17.90;;
15816;SDS011;8009;50.070;8.232;2023-06-19T12:51:23;18.92;;;18.23;;
15816;SDS011;8009;50.070;8.232;2023-06-19T12:53:53;18.42;;;17.73;;
15816;SDS011;8009;50.070;8.232;2023-06-19T12:56:21;18.42;;;17.73;;
15816;SDS011;8009;50.070;8.232;2023-06-19T12:58:53;19.60;;;18.70;;
15816;SDS011;8009;50.070;8.232;2023-06-19T13:01:22;20.50;;;19.70;;
15816;SDS011;8009;50.070;8.232;2023-06-19T13:03:51;18.77;;;18.08;;
15816;SDS011;8009;50.070;8.232;2023-06-19T13:06:21;17.73;;;17.02;;
15816;SDS011;8009;50.070;8.232;2023-06-19T13:08:52;17.65;;;16.98;;
15816;SDS011;8009;50.070;8.232;2023-06-19T13:11:23;18.00;;;17.30;;
15816;SDS011;8009;50.070;8.232;2023-06-19T13:14:14;17.73;;;17.02;;
15816;SDS011;8009;50.070;8.232;2023-06-19T13:16:42;20.42;;;19.63;;
15816;SDS011;8009;50.070;8.232;2023-06-19T13:19:11;18.75;;;18.05;;
15816;SDS011;8009;50.070;8.232;2023-06-19T13:21:40;18.63;;;17.92;;
15816;SDS011;8009;50.070;8.232;2023-06-19T13:24:10;17.75;;;17.08;;
15816;SDS011;8009;50.070;8.232;2023-06-19T13:26:38;16.80;;;16.20;;
15816;SDS011;8009;50.070;8.232;2023-06-19T13:29:07;16.35;;;15.75;;
15816;SDS011;8009;50.070;8.232;2023-06-19T13:31:38;16.77;;;16.17;;
15816;SDS011;8009;50.070;8.232;2023-06-19T13:34:08;16.23;;;15.63;;
15816;SDS011;8009;50.070;8.232;2023-06-19T13:36:37;16.88;;;16.27;;
15816;SDS011;8009;50.070;8.232;2023-06-19T13:39:05;16.00;;;15.40;;
15816;SDS011;8009;50.070;8.232;2023-06-19T13:41:34;16.80;;;16.20;;
15816;SDS011;8009;50.070;8.232;2023-06-19T13:44:02;16.40;;;15.80;;
15816;SDS011;8009;50.070;8.232;2023-06-19T13:46:31;16.67;;;16.08;;
15816;SDS011;8009;50.070;8.232;2023-06-19T13:49:02;16.77;;;16.17;;
15816;SDS011;8009;50.070;8.232;2023-06-19T13:51:30;16.90;;;16.30;;
15816;SDS011;8009;50.070;8.232;2023-06-19T13:53:59;16.35;;;15.75;;
15816;SDS011;8009;50.070;8.232;2023-06-19T13:56:28;17.75;;;17.05;;
15816;SDS011;8009;50.070;8.232;2023-06-19T13:58:57;16.95;;;16.35;;
15816;SDS011;8009;50.070;8.232;2023-06-19T14:01:26;17.02;;;16.42;;
15816;SDS011;8009;50.070;8.232;2023-06-19T14:03:54;16.67;;;16.08;;
15816;SDS011;8009;50.070;8.232;2023-06-19T14:06:25;17.23;;;16.52;;
15816;SDS011;8009;50.070;8.232;2023-06-19T14:08:55;17.20;;;16.60;;
15816;SDS011;8009;50.070;8.232;2023-06-19T14:11:23;17.30;;;16.60;;
15816;SDS011;8009;50.070;8.232;2023-06-19T14:13:54;16.92;;;16.33;;
15816;SDS011;8009;50.070;8.232;2023-06-19T14:16:24;17.08;;;16.48;;
15816;SDS011;8009;50.070;8.232;2023-06-19T14:18:56;17.85;;;17.15;;
15816;SDS011;8009;50.070;8.232;2023-06-19T14:21:27;17.92;;;17.23;;
15816;SDS011;8009;50.070;8.232;2023-06-19T14:23:55;16.55;;;15.95;;
15816;SDS011;8009;50.070;8.232;2023-06-19T14:26:26;16.88;;;16.27;;
15816;SDS011;8009;50.070;8.232;2023-06-19T14:28:54;23.35;;;22.45;;
15816;SDS011;8009;50.070;8.232;2023-06-19T14:31:24;20.08;;;19.27;;
15816;SDS011;8009;50.070;8.232;2023-06-19T14:33:53;17.83;;;17.13;;
15816;SDS011;8009;50.070;8.232;2023-06-19T14:36:22;18.70;;;18.00;;
15816;SDS011;8009;50.070;8.232;2023-06-19T14:45:05;18.33;;;17.63;;
15816;SDS011;8009;50.070;8.232;2023-06-19T14:47:34;17.90;;;17.20;;
15816;SDS011;8009;50.070;8.232;2023-06-19T14:50:10;18.42;;;17.73;;
15816;SDS011;8009;50.070;8.232;2023-06-19T14:52:38;19.58;;;18.77;;
15816;SDS011;8009;50.070;8.232;2023-06-19T14:55:07;19.67;;;18.95;;
15816;SDS011;8009;50.070;8.232;2023-06-19T14:57:36;18.52;;;17.50;;
15816;SDS011;8009;50.070;8.232;2023-06-19T15:00:08;18.13;;;17.42;;
15816;SDS011;8009;50.070;8.232;2023-06-19T15:02:37;18.17;;;17.38;;
15816;SDS011;8009;50.070;8.232;2023-06-19T15:05:06;17.70;;;17.00;;
15816;SDS011;8009;50.070;8.232;2023-06-19T15:07:35;18.92;;;18.23;;
15816;SDS011;8009;50.070;8.232;2023-06-19T15:10:04;18.08;;;17.38;;
15816;SDS011;8009;50.070;8.232;2023-06-19T15:12:35;18.08;;;17.38;;